Time,TemperatureF,DewpointF,PressureIn,WindDirection,WindDirectionDegrees,WindSpeedMPH,WindSpeedGustMPH,Humidity,HourlyPrecipIn,Conditions,Clouds,dailyrainin,SoftwareType,DateUTC
2013-10-08 00:01:00,65.6,61.9,29.92,South,172,5.0,12.0,88,0.00,,,0.04,HR-IXPWINDi_r2_v1.2.,2013-10-08 04:01:00,
2013-10-08 00:06:00,65.2,60.8,29.92,SSW,210,4.0,14.0,86,0.00,,,0.00,HR-IXPWINDi_r2_v1.2.,2013-10-08 04:06:00,
2013-10-08 00:11:00,64.9,60.9,29.93,SSE,156,5.0,14.0,87,0.00,,,0.00,HR-IXPWINDi_r2_v1.2.,2013-10-08 04:11:00,
2013-10-08 00:16:00,64.8,60.8,29.93,SSE,161,2.0,11.0,87,0.00,,,0.00,HR-IXPWINDi_r2_v1.2.,2013-10-08 04:16:00,
2013-10-08 00:21:00,64.7,60.7,29.93,SSW,195,5.0,8.0,87,0.00,,,0.00,HR-IXPWINDi_r2_v1.2.,2013-10-08 04:21:00,
2013-10-08 00:27:00,64.6,60.6,29.94,SSE,163,6.0,7.0,87,0.00,,,0.00,HR-IXPWINDi_r2_v1.2.,2013-10-08 04:27:00,
2013-10-08 00:32:00,64.6,60.6,29.94,SW,225,5.0,7.0,87,0.00,,,0.00,HR-IXPWINDi_r2_v1.2.,2013-10-08 04:32:00,
2013-10-08 00:37:00,64.5,60.5,29.94,South,184,5.0,10.0,87,0.00,,,0.00,HR-IXPWINDi_r2_v1.2.,2013-10-08 04:37:00,
2013-10-08 00:42:00,64.4,60.1,29.94,South,181,7.0,10.0,86,0.00,,,0.00,HR-IXPWINDi_r2_v1.2.,2013-10-08 04:42:00,
2013-10-08 00:47:00,64.3,59.6,29.95,SSE,165,4.0,15.0,85,0.00,,,0.00,HR-IXPWINDi_r2_v1.2.,2013-10-08 04:47:00,
2013-10-08 00:53:00,64.1,58.1,29.95,South,171,5.0,15.0,81,0.00,,,0.00,HR-IXPWINDi_r2_v1.2.,2013-10-08 04:53:00,
2013-10-08 00:58:00,63.8,56.0,29.95,SSE,168,13.0,13.0,76,0.00,,,0.00,HR-IXPWINDi_r2_v1.2.,2013-10-08 04:58:00,
2013-10-08 01:03:00,63.6,54.3,29.95,SE,136,5.0,13.0,72,0.00,,,0.00,HR-IXPWINDi_r2_v1.2.,2013-10-08 05:03:00,
2013-10-08 01:08:00,63.3,53.7,29.95,South,174,5.0,13.0,71,0.00,,,0.00,HR-IXPWINDi_r2_v1.2.,2013-10-08 05:08:00,
2013-10-08 01:13:00,63.1,54.2,29.96,SSE,161,1.0,13.0,73,0.00,,,0.00,HR-IXPWINDi_r2_v1.2.,2013-10-08 05:13:00,
2013-10-08 01:18:00,62.9,52.9,29.96,South,179,5.0,13.0,70,0.00,,,0.00,HR-IXPWINDi_r2_v1.2.,2013-10-08 05:18:00,
2013-10-08 01:24:00,62.8,52.8,29.97,SSW,203,4.0,13.0,70,0.00,,,0.00,HR-IXPWINDi_r2_v1.2.,2013-10-08 05:24:00,
2013-10-08 01:29:00,62.6,52.6,29.97,SSW,193,7.0,10.0,70,0.00,,,0.00,HR-IXPWINDi_r2_v1.2.,2013-10-08 05:29:00,
2013-10-08 01:34:00,62.6,52.2,29.97,SSE,167,6.0,10.0,69,0.00,,,0.00,HR-IXPWINDi_r2_v1.2.,2013-10-08 05:34:00,
2013-10-08 01:39:00,62.6,51.8,29.97,SSW,194,5.0,16.0,68,0.00,,,0.00,HR-IXPWINDi_r2_v1.2.,2013-10-08 05:39:00,
2013-10-08 01:44:00,62.5,50.9,29.97,SSW,194,9.0,16.0,66,0.00,,,0.00,HR-IXPWINDi_r2_v1.2.,2013-10-08 05:44:00,
2013-10-08 01:50:00,62.4,51.6,29.98,South,172,3.0,12.0,68,0.00,,,0.00,HR-IXPWINDi_r2_v1.2.,2013-10-08 05:50:00,
2013-10-08 01:55:00,62.3,51.1,29.98,South,188,10.0,14.0,67,0.00,,,0.00,HR-IXPWINDi_r2_v1.2.,2013-10-08 05:55:00,
2013-10-08 02:00:00,62.2,51.1,29.99,South,174,9.0,15.0,67,0.00,,,0.00,HR-IXPWINDi_r2_v1.2.,2013-10-08 06:00:00,
2013-10-08 02:05:00,62.0,51.3,29.99,SSE,163,5.0,15.0,68,0.00,,,0.00,HR-IXPWINDi_r2_v1.2.,2013-10-08 06:05:00,
2013-10-08 02:11:00,61.7,51.0,29.99,SE,146,11.0,12.0,68,0.00,,,0.00,HR-IXPWINDi_r2_v1.2.,2013-10-08 06:11:00,
2013-10-08 02:17:00,61.6,51.3,29.99,South,191,5.0,11.0,69,0.00,,,0.00,HR-IXPWINDi_r2_v1.2.,2013-10-08 06:17:00,
2013-10-08 02:22:00,61.4,50.7,30.00,SSE,159,5.0,12.0,68,0.00,,,0.00,HR-IXPWINDi_r2_v1.2.,2013-10-08 06:22:00,
2013-10-08 02:27:00,61.3,50.6,30.00,SSE,165,8.0,12.0,68,0.00,,,0.00,HR-IXPWINDi_r2_v1.2.,2013-10-08 06:27:00,
2013-10-08 02:32:00,61.1,50.4,30.00,SSE,163,1.0,11.0,68,0.00,,,0.00,HR-IXPWINDi_r2_v1.2.,2013-10-08 06:32:00,
2013-10-08 02:37:00,61.0,49.9,30.00,SSE,158,2.0,10.0,67,0.00,,,0.00,HR-IXPWINDi_r2_v1.2.,2013-10-08 06:37:00,
2013-10-08 02:42:00,60.9,49.8,30.00,SSE,162,3.0,10.0,67,0.00,,,0.00,HR-IXPWINDi_r2_v1.2.,2013-10-08 06:42:00,
2013-10-08 02:47:00,60.6,49.9,30.00,South,170,2.0,8.0,68,0.00,,,0.00,HR-IXPWINDi_r2_v1.2.,2013-10-08 06:47:00,
2013-10-08 02:53:00,60.3,49.6,30.01,South,175,6.0,8.0,68,0.00,,,0.00,HR-IXPWINDi_r2_v1.2.,2013-10-08 06:53:00,
2013-10-08 02:58:00,60.0,49.4,30.01,SSE,162,5.0,6.0,68,0.00,,,0.00,HR-IXPWINDi_r2_v1.2.,2013-10-08 06:58:00,
2013-10-08 03:03:00,59.7,49.5,30.01,South,178,5.0,8.0,69,0.00,,,0.00,HR-IXPWINDi_r2_v1.2.,2013-10-08 07:03:00,
2013-10-08 03:08:00,59.5,49.7,30.01,SSE,155,6.0,8.0,70,0.00,,,0.00,HR-IXPWINDi_r2_v1.2.,2013-10-08 07:08:00,
2013-10-08 03:13:00,59.2,49.4,30.01,SSE,167,2.0,7.0,70,0.00,,,0.00,HR-IXPWINDi_r2_v1.2.,2013-10-08 07:13:00,
2013-10-08 03:18:00,59.0,49.2,30.01,SSE,163,4.0,9.0,70,0.00,,,0.00,HR-IXPWINDi_r2_v1.2.,2013-10-08 07:18:00,
2013-10-08 03:23:00,58.8,49.4,30.01,SW,214,4.0,9.0,71,0.00,,,0.00,HR-IXPWINDi_r2_v1.2.,2013-10-08 07:23:00,
2013-10-08 03:28:00,58.5,49.1,30.01,South,180,2.0,9.0,71,0.00,,,0.00,HR-IXPWINDi_r2_v1.2.,2013-10-08 07:28:00,
2013-10-08 03:34:00,58.3,49.3,30.01,South,191,4.0,10.0,72,0.00,,,0.00,HR-IXPWINDi_r2_v1.2.,2013-10-08 07:34:00,
2013-10-08 03:39:00,58.2,49.2,30.02,SSE,166,3.0,10.0,72,0.00,,,0.00,HR-IXPWINDi_r2_v1.2.,2013-10-08 07:39:00,
2013-10-08 03:44:00,58.0,49.0,30.02,South,180,8.0,10.0,72,0.00,,,0.00,HR-IXPWINDi_r2_v1.2.,2013-10-08 07:44:00,
2013-10-08 03:49:00,57.8,49.1,30.02,South,178,6.0,10.0,73,0.00,,,0.00,HR-IXPWINDi_r2_v1.2.,2013-10-08 07:49:00,
2013-10-08 03:54:00,57.6,49.0,30.03,SSE,167,3.0,8.0,73,0.00,,,0.00,HR-IXPWINDi_r2_v1.2.,2013-10-08 07:54:00,
2013-10-08 03:59:00,57.4,48.8,30.03,SSE,162,6.0,10.0,73,0.00,,,0.00,HR-IXPWINDi_r2_v1.2.,2013-10-08 07:59:00,
2013-10-08 04:04:00,57.3,49.0,30.03,South,179,2.0,10.0,74,0.00,,,0.00,HR-IXPWINDi_r2_v1.2.,2013-10-08 08:04:00,
2013-10-08 04:09:00,57.0,48.7,30.03,South,180,3.0,10.0,74,0.00,,,0.00,HR-IXPWINDi_r2_v1.2.,2013-10-08 08:09:00,
2013-10-08 04:14:00,57.0,48.7,30.04,South,174,2.0,8.0,74,0.00,,,0.00,HR-IXPWINDi_r2_v1.2.,2013-10-08 08:14:00,
2013-10-08 04:20:00,56.8,48.5,30.04,South,169,3.0,8.0,74,0.00,,,0.00,HR-IXPWINDi_r2_v1.2.,2013-10-08 08:20:00,
2013-10-08 04:25:00,56.8,48.5,30.04,SSE,150,6.0,9.0,74,0.00,,,0.00,HR-IXPWINDi_r2_v1.2.,2013-10-08 08:25:00,
2013-10-08 04:30:00,56.8,48.2,30.04,South,169,8.0,13.0,73,0.00,,,0.00,HR-IXPWINDi_r2_v1.2.,2013-10-08 08:30:00,
2013-10-08 04:35:00,56.8,48.2,30.05,South,173,3.0,13.0,73,0.00,,,0.00,HR-IXPWINDi_r2_v1.2.,2013-10-08 08:35:00,
2013-10-08 04:41:00,56.7,48.4,30.05,SE,135,4.0,11.0,74,0.00,,,0.00,HR-IXPWINDi_r2_v1.2.,2013-10-08 08:41:00,
2013-10-08 04:46:00,56.5,48.3,30.05,ESE,123,1.0,10.0,74,0.00,,,0.00,HR-IXPWINDi_r2_v1.2.,2013-10-08 08:46:00,
2013-10-08 04:51:00,56.1,48.2,30.05,ESE,114,2.0,5.0,75,0.00,,,0.00,HR-IXPWINDi_r2_v1.2.,2013-10-08 08:51:00,
2013-10-08 04:57:00,55.8,48.3,30.06,SE,138,4.0,6.0,76,0.00,,,0.00,HR-IXPWINDi_r2_v1.2.,2013-10-08 08:57:00,
2013-10-08 05:02:00,55.7,48.2,30.06,SE,134,4.0,6.0,76,0.00,,,0.00,HR-IXPWINDi_r2_v1.2.,2013-10-08 09:02:00,
2013-10-08 05:07:00,55.5,48.0,30.06,SSE,160,3.0,6.0,76,0.00,,,0.00,HR-IXPWINDi_r2_v1.2.,2013-10-08 09:07:00,
2013-10-08 05:13:00,55.4,48.3,30.06,East,98,2.0,6.0,77,0.00,,,0.00,HR-IXPWINDi_r2_v1.2.,2013-10-08 09:13:00,
2013-10-08 05:19:00,55.3,47.8,30.07,SE,129,0.0,5.0,76,0.00,,,0.00,HR-IXPWINDi_r2_v1.2.,2013-10-08 09:19:00,
2013-10-08 05:25:00,55.3,48.2,30.07,SE,134,3.0,7.0,77,0.00,,,0.00,HR-IXPWINDi_r2_v1.2.,2013-10-08 09:25:00,
2013-10-08 05:30:00,55.3,47.8,30.07,South,174,1.0,7.0,76,0.00,,,0.00,HR-IXPWINDi_r2_v1.2.,2013-10-08 09:30:00,
2013-10-08 05:35:00,55.2,47.4,30.07,SSE,159,3.0,11.0,75,0.00,,,0.00,HR-IXPWINDi_r2_v1.2.,2013-10-08 09:35:00,
2013-10-08 05:40:00,55.3,47.5,30.07,South,182,3.0,11.0,75,0.00,,,0.00,HR-IXPWINDi_r2_v1.2.,2013-10-08 09:40:00,
2013-10-08 05:45:00,55.3,47.1,30.08,South,191,3.0,9.0,74,0.00,,,0.00,HR-IXPWINDi_r2_v1.2.,2013-10-08 09:45:00,
2013-10-08 05:51:00,55.2,47.4,30.08,South,187,4.0,9.0,75,0.00,,,0.00,HR-IXPWINDi_r2_v1.2.,2013-10-08 09:51:00,
2013-10-08 05:56:00,55.2,47.0,30.08,SW,214,6.0,11.0,74,0.00,,,0.00,HR-IXPWINDi_r2_v1.2.,2013-10-08 09:56:00,
2013-10-08 06:01:00,55.2,47.0,30.08,South,174,2.0,11.0,74,0.00,,,0.00,HR-IXPWINDi_r2_v1.2.,2013-10-08 10:01:00,
2013-10-08 06:06:00,55.0,47.2,30.08,SSE,156,0.0,10.0,75,0.00,,,0.00,HR-IXPWINDi_r2_v1.2.,2013-10-08 10:06:00,
2013-10-08 06:11:00,54.9,47.1,30.09,South,169,3.0,7.0,75,0.00,,,0.00,HR-IXPWINDi_r2_v1.2.,2013-10-08 10:11:00,
2013-10-08 06:16:00,54.8,47.0,30.09,ESE,122,1.0,7.0,75,0.00,,,0.00,HR-IXPWINDi_r2_v1.2.,2013-10-08 10:16:00,
2013-10-08 06:21:00,54.6,46.8,30.09,South,174,5.0,8.0,75,0.00,,,0.00,HR-IXPWINDi_r2_v1.2.,2013-10-08 10:21:00,
2013-10-08 06:26:00,54.6,47.1,30.10,SE,139,1.0,8.0,76,0.00,,,0.00,HR-IXPWINDi_r2_v1.2.,2013-10-08 10:26:00,
2013-10-08 06:31:00,54.5,47.0,30.10,SSE,155,0.0,6.0,76,0.00,,,0.00,HR-IXPWINDi_r2_v1.2.,2013-10-08 10:31:00,
2013-10-08 06:37:00,54.3,46.8,30.10,South,177,3.0,6.0,76,0.00,,,0.00,HR-IXPWINDi_r2_v1.2.,2013-10-08 10:37:00,
2013-10-08 06:42:00,54.3,46.8,30.11,SSW,194,1.0,6.0,76,0.00,,,0.00,HR-IXPWINDi_r2_v1.2.,2013-10-08 10:42:00,
2013-10-08 06:47:00,54.2,46.7,30.11,South,181,3.0,8.0,76,0.00,,,0.00,HR-IXPWINDi_r2_v1.2.,2013-10-08 10:47:00,
2013-10-08 06:52:00,54.2,46.7,30.12,SSE,167,2.0,10.0,76,0.00,,,0.00,HR-IXPWINDi_r2_v1.2.,2013-10-08 10:52:00,
2013-10-08 06:57:00,54.1,46.6,30.12,SSE,162,0.0,10.0,76,0.00,,,0.00,HR-IXPWINDi_r2_v1.2.,2013-10-08 10:57:00,
2013-10-08 07:03:00,54.1,46.6,30.12,SSE,159,2.0,6.0,76,0.00,,,0.00,HR-IXPWINDi_r2_v1.2.,2013-10-08 11:03:00,
2013-10-08 07:08:00,54.1,46.6,30.12,ESE,119,4.0,8.0,76,0.00,,,0.00,HR-IXPWINDi_r2_v1.2.,2013-10-08 11:08:00,
2013-10-08 07:13:00,54.1,46.6,30.12,SSW,200,3.0,9.0,76,0.00,,,0.00,HR-IXPWINDi_r2_v1.2.,2013-10-08 11:13:00,
2013-10-08 07:18:00,54.2,46.7,30.13,SSE,155,2.0,10.0,76,0.00,,,0.00,HR-IXPWINDi_r2_v1.2.,2013-10-08 11:18:00,
2013-10-08 07:23:00,54.2,46.7,30.13,ESE,122,0.0,11.0,76,0.00,,,0.00,HR-IXPWINDi_r2_v1.2.,2013-10-08 11:23:00,
2013-10-08 07:28:00,54.3,46.8,30.13,South,181,2.0,11.0,76,0.00,,,0.00,HR-IXPWINDi_r2_v1.2.,2013-10-08 11:28:00,
2013-10-08 07:34:00,54.6,47.1,30.13,SE,134,1.0,6.0,76,0.00,,,0.00,HR-IXPWINDi_r2_v1.2.,2013-10-08 11:34:00,
2013-10-08 07:39:00,54.7,46.9,30.14,SSE,150,0.0,6.0,75,0.00,,,0.00,HR-IXPWINDi_r2_v1.2.,2013-10-08 11:39:00,
2013-10-08 07:44:00,55.0,47.2,30.15,SSE,153,4.0,8.0,75,0.00,,,0.00,HR-IXPWINDi_r2_v1.2.,2013-10-08 11:44:00,
2013-10-08 07:50:00,55.2,47.0,30.15,SSW,200,5.0,8.0,74,0.00,,,0.00,HR-IXPWINDi_r2_v1.2.,2013-10-08 11:50:00,
2013-10-08 07:55:00,55.5,47.3,30.15,South,188,3.0,8.0,74,0.00,,,0.00,HR-IXPWINDi_r2_v1.2.,2013-10-08 11:55:00,
2013-10-08 08:00:00,55.8,46.9,30.15,South,176,2.0,12.0,72,0.00,,,0.00,HR-IXPWINDi_r2_v1.2.,2013-10-08 12:00:00,
2013-10-08 08:05:00,56.1,47.5,30.15,SSE,159,5.0,12.0,73,0.00,,,0.00,HR-IXPWINDi_r2_v1.2.,2013-10-08 12:05:00,
2013-10-08 08:10:00,56.2,47.2,30.16,South,181,3.0,15.0,72,0.00,,,0.00,HR-IXPWINDi_r2_v1.2.,2013-10-08 12:10:00,
2013-10-08 08:15:00,56.1,47.1,30.17,SSE,163,3.0,15.0,72,0.00,,,0.00,HR-IXPWINDi_r2_v1.2.,2013-10-08 12:15:00,
2013-10-08 08:20:00,56.0,46.7,30.17,South,187,5.0,12.0,71,0.00,,,0.00,HR-IXPWINDi_r2_v1.2.,2013-10-08 12:20:00,
2013-10-08 08:25:00,55.9,47.3,30.17,SE,139,3.0,8.0,73,0.00,,,0.00,HR-IXPWINDi_r2_v1.2.,2013-10-08 12:25:00,
2013-10-08 08:31:00,55.9,47.3,30.18,SSE,150,2.0,8.0,73,0.00,,,0.00,HR-IXPWINDi_r2_v1.2.,2013-10-08 12:31:00,
2013-10-08 08:36:00,55.8,47.2,30.18,South,171,3.0,7.0,73,0.00,,,0.00,HR-IXPWINDi_r2_v1.2.,2013-10-08 12:36:00,
2013-10-08 08:41:00,55.8,47.2,30.18,SW,214,3.0,6.0,73,0.00,,,0.00,HR-IXPWINDi_r2_v1.2.,2013-10-08 12:41:00,
2013-10-08 08:46:00,55.8,47.2,30.18,South,183,6.0,8.0,73,0.00,,,0.00,HR-IXPWINDi_r2_v1.2.,2013-10-08 12:46:00,
2013-10-08 08:51:00,56.3,48.1,30.18,SSE,158,0.0,8.0,74,0.00,,,0.00,HR-IXPWINDi_r2_v1.2.,2013-10-08 12:51:00,
2013-10-08 08:56:00,56.8,47.8,30.18,SSE,166,1.0,8.0,72,0.00,,,0.00,HR-IXPWINDi_r2_v1.2.,2013-10-08 12:56:00,
2013-10-08 09:01:00,57.1,47.0,30.19,SSW,205,7.0,11.0,69,0.00,,,0.00,HR-IXPWINDi_r2_v1.2.,2013-10-08 13:01:00,
2013-10-08 09:06:00,57.2,47.4,30.18,SW,214,4.0,11.0,70,0.00,,,0.00,HR-IXPWINDi_r2_v1.2.,2013-10-08 13:06:00,
2013-10-08 09:12:00,57.0,46.9,30.19,South,191,5.0,10.0,69,0.00,,,0.00,HR-IXPWINDi_r2_v1.2.,2013-10-08 13:12:00,
2013-10-08 09:17:00,56.9,46.4,30.19,SSW,193,8.0,12.0,68,0.00,,,0.00,HR-IXPWINDi_r2_v1.2.,2013-10-08 13:17:00,
2013-10-08 09:22:00,57.0,46.5,30.19,SE,134,5.0,12.0,68,0.00,,,0.00,HR-IXPWINDi_r2_v1.2.,2013-10-08 13:22:00,
2013-10-08 09:27:00,57.4,46.9,30.19,South,183,2.0,9.0,68,0.00,,,0.00,HR-IXPWINDi_r2_v1.2.,2013-10-08 13:27:00,
2013-10-08 09:32:00,57.9,47.3,30.20,SSE,158,1.0,9.0,68,0.00,,,0.00,HR-IXPWINDi_r2_v1.2.,2013-10-08 13:32:00,
2013-10-08 09:37:00,58.3,47.3,30.20,SSE,154,4.0,10.0,67,0.00,,,0.00,HR-IXPWINDi_r2_v1.2.,2013-10-08 13:37:00,
2013-10-08 09:43:00,58.8,47.4,30.20,South,174,3.0,10.0,66,0.00,,,0.00,HR-IXPWINDi_r2_v1.2.,2013-10-08 13:43:00,
2013-10-08 09:48:00,59.2,47.4,30.19,South,177,2.0,9.0,65,0.00,,,0.00,HR-IXPWINDi_r2_v1.2.,2013-10-08 13:48:00,
2013-10-08 09:53:00,59.6,47.4,30.20,South,176,9.0,9.0,64,0.00,,,0.00,HR-IXPWINDi_r2_v1.2.,2013-10-08 13:53:00,
2013-10-08 09:58:00,59.7,46.6,30.20,SW,221,10.0,12.0,62,0.00,,,0.00,HR-IXPWINDi_r2_v1.2.,2013-10-08 13:58:00,
2013-10-08 10:03:00,59.9,46.4,30.20,SSE,166,8.0,12.0,61,0.00,,,0.00,HR-IXPWINDi_r2_v1.2.,2013-10-08 14:03:00,
2013-10-08 10:08:00,60.2,46.6,30.20,SSE,165,6.0,11.0,61,0.00,,,0.00,HR-IXPWINDi_r2_v1.2.,2013-10-08 14:08:00,
2013-10-08 10:13:00,60.8,45.9,30.20,South,170,7.0,11.0,58,0.00,,,0.00,HR-IXPWINDi_r2_v1.2.,2013-10-08 14:13:00,
2013-10-08 10:18:00,60.9,44.6,30.20,SW,221,7.0,17.0,55,0.00,,,0.00,HR-IXPWINDi_r2_v1.2.,2013-10-08 14:18:00,
2013-10-08 10:24:00,60.8,44.5,30.20,South,172,7.0,17.0,55,0.00,,,0.00,HR-IXPWINDi_r2_v1.2.,2013-10-08 14:24:00,
2013-10-08 10:29:00,60.9,44.6,30.20,SSW,198,10.0,17.0,55,0.00,,,0.00,HR-IXPWINDi_r2_v1.2.,2013-10-08 14:29:00,
2013-10-08 10:34:00,61.0,45.1,30.20,SSW,200,12.0,17.0,56,0.00,,,0.00,HR-IXPWINDi_r2_v1.2.,2013-10-08 14:34:00,
2013-10-08 10:39:00,61.1,44.8,30.20,SSW,194,5.0,15.0,55,0.00,,,0.00,HR-IXPWINDi_r2_v1.2.,2013-10-08 14:39:00,
2013-10-08 10:44:00,61.5,44.7,30.20,South,190,5.0,14.0,54,0.00,,,0.00,HR-IXPWINDi_r2_v1.2.,2013-10-08 14:44:00,
2013-10-08 10:49:00,61.7,45.3,30.20,South,181,5.0,14.0,55,0.00,,,0.00,HR-IXPWINDi_r2_v1.2.,2013-10-08 14:49:00,
2013-10-08 10:54:00,62.0,45.6,30.20,SW,233,8.0,13.0,55,0.00,,,0.00,HR-IXPWINDi_r2_v1.2.,2013-10-08 14:54:00,
2013-10-08 10:59:00,62.0,44.1,30.20,SW,215,9.0,13.0,52,0.00,,,0.00,HR-IXPWINDi_r2_v1.2.,2013-10-08 14:59:00,
2013-10-08 11:05:00,62.2,44.8,30.20,SSW,203,5.0,13.0,53,0.00,,,0.00,HR-IXPWINDi_r2_v1.2.,2013-10-08 15:05:00,
2013-10-08 11:10:00,62.4,45.5,30.20,South,172,6.0,11.0,54,0.00,,,0.00,HR-IXPWINDi_r2_v1.2.,2013-10-08 15:10:00,
2013-10-08 11:15:00,62.6,45.2,30.20,SSW,200,7.0,11.0,53,0.00,,,0.00,HR-IXPWINDi_r2_v1.2.,2013-10-08 15:15:00,
2013-10-08 11:20:00,62.9,45.5,30.21,SW,218,5.0,13.0,53,0.00,,,0.00,HR-IXPWINDi_r2_v1.2.,2013-10-08 15:20:00,
2013-10-08 11:25:00,63.1,44.6,30.21,SW,225,12.0,13.0,51,0.00,,,0.00,HR-IXPWINDi_r2_v1.2.,2013-10-08 15:25:00,
2013-10-08 11:30:00,63.2,44.7,30.21,WSW,251,7.0,15.0,51,0.00,,,0.00,HR-IXPWINDi_r2_v1.2.,2013-10-08 15:30:00,
2013-10-08 11:36:00,63.4,44.9,30.20,South,177,9.0,15.0,51,0.00,,,0.00,HR-IXPWINDi_r2_v1.2.,2013-10-08 15:36:00,
2013-10-08 11:41:00,63.8,44.2,30.20,South,181,8.0,13.0,49,0.00,,,0.00,HR-IXPWINDi_r2_v1.2.,2013-10-08 15:41:00,
2013-10-08 11:46:00,63.8,43.7,30.20,SSW,195,5.0,13.0,48,0.00,,,0.00,HR-IXPWINDi_r2_v1.2.,2013-10-08 15:46:00,
2013-10-08 11:51:00,63.9,44.3,30.20,WSW,257,6.0,13.0,49,0.00,,,0.00,HR-IXPWINDi_r2_v1.2.,2013-10-08 15:51:00,
2013-10-08 11:56:00,64.4,45.3,30.20,South,183,11.0,13.0,50,0.00,,,0.00,HR-IXPWINDi_r2_v1.2.,2013-10-08 15:56:00,
2013-10-08 12:01:00,64.4,45.3,30.20,SW,221,11.0,14.0,50,0.00,,,0.00,HR-IXPWINDi_r2_v1.2.,2013-10-08 16:01:00,
2013-10-08 12:07:00,64.6,44.4,30.20,SW,217,8.0,15.0,48,0.00,,,0.00,HR-IXPWINDi_r2_v1.2.,2013-10-08 16:07:00,
2013-10-08 12:12:00,64.6,43.9,30.20,SW,224,6.0,15.0,47,0.00,,,0.00,HR-IXPWINDi_r2_v1.2.,2013-10-08 16:12:00,
2013-10-08 12:17:00,64.9,44.7,30.20,South,187,8.0,14.0,48,0.00,,,0.00,HR-IXPWINDi_r2_v1.2.,2013-10-08 16:17:00,
2013-10-08 12:22:00,65.1,44.9,30.20,South,174,3.0,15.0,48,0.00,,,0.00,HR-IXPWINDi_r2_v1.2.,2013-10-08 16:22:00,
2013-10-08 12:27:00,65.3,42.8,30.20,SSW,204,7.0,16.0,44,0.00,,,0.00,HR-IXPWINDi_r2_v1.2.,2013-10-08 16:27:00,
2013-10-08 12:33:00,65.4,43.5,30.20,WSW,238,5.0,16.0,45,0.00,,,0.00,HR-IXPWINDi_r2_v1.2.,2013-10-08 16:33:00,
2013-10-08 12:38:00,65.4,42.3,30.20,SW,218,13.0,14.0,43,0.00,,,0.00,HR-IXPWINDi_r2_v1.2.,2013-10-08 16:38:00,
2013-10-08 12:43:00,65.6,44.2,30.20,SW,225,13.0,14.0,46,0.00,,,0.00,HR-IXPWINDi_r2_v1.2.,2013-10-08 16:43:00,
2013-10-08 12:48:00,65.8,43.8,30.20,South,186,2.0,14.0,45,0.00,,,0.00,HR-IXPWINDi_r2_v1.2.,2013-10-08 16:48:00,
2013-10-08 12:53:00,66.2,42.4,30.19,ESE,119,9.0,15.0,42,0.00,,,0.00,HR-IXPWINDi_r2_v1.2.,2013-10-08 16:53:00,
2013-10-08 12:58:00,66.1,41.7,30.19,SSW,210,8.0,15.0,41,0.00,,,0.00,HR-IXPWINDi_r2_v1.2.,2013-10-08 16:58:00,
2013-10-08 13:03:00,66.0,43.4,30.19,South,187,8.0,14.0,44,0.00,,,0.00,HR-IXPWINDi_r2_v1.2.,2013-10-08 17:03:00,
2013-10-08 13:08:00,66.0,42.2,30.19,SSW,211,6.0,13.0,42,0.00,,,0.00,HR-IXPWINDi_r2_v1.2.,2013-10-08 17:08:00,
2013-10-08 13:13:00,66.3,44.3,30.19,SW,217,5.0,13.0,45,0.00,,,0.00,HR-IXPWINDi_r2_v1.2.,2013-10-08 17:13:00,
2013-10-08 13:18:00,66.3,43.7,30.19,SSW,198,8.0,15.0,44,0.00,,,0.00,HR-IXPWINDi_r2_v1.2.,2013-10-08 17:18:00,
2013-10-08 13:23:00,66.4,44.9,30.19,South,186,2.0,15.0,46,0.00,,,0.00,HR-IXPWINDi_r2_v1.2.,2013-10-08 17:23:00,
2013-10-08 13:29:00,66.6,44.0,30.19,South,178,9.0,15.0,44,0.00,,,0.00,HR-IXPWINDi_r2_v1.2.,2013-10-08 17:29:00,
2013-10-08 13:34:00,66.4,42.6,30.19,SSW,205,11.0,15.0,42,0.00,,,0.00,HR-IXPWINDi_r2_v1.2.,2013-10-08 17:34:00,
2013-10-08 13:39:00,66.4,41.9,30.19,South,186,6.0,15.0,41,0.00,,,0.00,HR-IXPWINDi_r2_v1.2.,2013-10-08 17:39:00,
2013-10-08 13:44:00,66.9,44.8,30.19,SSE,167,5.0,13.0,45,0.00,,,0.00,HR-IXPWINDi_r2_v1.2.,2013-10-08 17:44:00,
2013-10-08 13:49:00,67.4,42.8,30.19,SW,224,5.0,12.0,41,0.00,,,0.00,HR-IXPWINDi_r2_v1.2.,2013-10-08 17:49:00,
2013-10-08 13:55:00,66.9,42.4,30.19,SSE,165,10.0,14.0,41,0.00,,,0.00,HR-IXPWINDi_r2_v1.2.,2013-10-08 17:55:00,
2013-10-08 14:00:00,66.9,42.4,30.19,SW,217,7.0,14.0,41,0.00,,,0.00,HR-IXPWINDi_r2_v1.2.,2013-10-08 18:00:00,
2013-10-08 14:05:00,66.9,44.2,30.19,SSE,166,2.0,12.0,44,0.00,,,0.00,HR-IXPWINDi_r2_v1.2.,2013-10-08 18:05:00,
2013-10-08 14:10:00,66.8,43.5,30.19,SSW,195,10.0,13.0,43,0.00,,,0.00,HR-IXPWINDi_r2_v1.2.,2013-10-08 18:10:00,
2013-10-08 14:16:00,66.5,42.7,30.19,SW,217,7.0,14.0,42,0.00,,,0.00,HR-IXPWINDi_r2_v1.2.,2013-10-08 18:16:00,
2013-10-08 14:21:00,66.5,43.9,30.19,South,188,8.0,14.0,44,0.00,,,0.00,HR-IXPWINDi_r2_v1.2.,2013-10-08 18:21:00,
2013-10-08 14:26:00,66.4,42.6,30.20,SSW,207,5.0,13.0,42,0.00,,,0.00,HR-IXPWINDi_r2_v1.2.,2013-10-08 18:26:00,
2013-10-08 14:31:00,66.4,42.6,30.20,SSW,203,4.0,13.0,42,0.00,,,0.00,HR-IXPWINDi_r2_v1.2.,2013-10-08 18:31:00,
2013-10-08 14:36:00,66.5,42.7,30.20,SSW,197,6.0,11.0,42,0.00,,,0.00,HR-IXPWINDi_r2_v1.2.,2013-10-08 18:36:00,
2013-10-08 14:42:00,66.5,42.7,30.20,South,185,4.0,11.0,42,0.00,,,0.00,HR-IXPWINDi_r2_v1.2.,2013-10-08 18:42:00,
2013-10-08 14:47:00,67.0,43.7,30.21,West,263,7.0,10.0,43,0.00,,,0.00,HR-IXPWINDi_r2_v1.2.,2013-10-08 18:47:00,
2013-10-08 14:52:00,67.3,43.4,30.21,WSW,255,5.0,10.0,42,0.00,,,0.00,HR-IXPWINDi_r2_v1.2.,2013-10-08 18:52:00,
2013-10-08 14:57:00,67.3,44.0,30.21,South,184,3.0,12.0,43,0.00,,,0.00,HR-IXPWINDi_r2_v1.2.,2013-10-08 18:57:00,
2013-10-08 15:02:00,67.3,42.8,30.21,WSW,237,4.0,12.0,41,0.00,,,0.00,HR-IXPWINDi_r2_v1.2.,2013-10-08 19:02:00,
2013-10-08 15:08:00,67.5,43.6,30.21,West,259,7.0,10.0,42,0.00,,,0.00,HR-IXPWINDi_r2_v1.2.,2013-10-08 19:08:00,
2013-10-08 15:13:00,67.4,41.5,30.21,WSW,238,6.0,12.0,39,0.00,,,0.00,HR-IXPWINDi_r2_v1.2.,2013-10-08 19:13:00,
2013-10-08 15:18:00,67.6,43.0,30.21,SW,225,5.0,12.0,41,0.00,,,0.00,HR-IXPWINDi_r2_v1.2.,2013-10-08 19:18:00,
2013-10-08 15:23:00,67.5,42.3,30.22,SW,214,8.0,9.0,40,0.00,,,0.00,HR-IXPWINDi_r2_v1.2.,2013-10-08 19:23:00,
2013-10-08 15:29:00,67.7,42.5,30.22,West,266,6.0,11.0,40,0.00,,,0.00,HR-IXPWINDi_r2_v1.2.,2013-10-08 19:29:00,
2013-10-08 15:34:00,67.8,42.6,30.22,SW,222,2.0,11.0,40,0.00,,,0.00,HR-IXPWINDi_r2_v1.2.,2013-10-08 19:34:00,
2013-10-08 15:39:00,67.8,41.9,30.22,SSW,203,3.0,10.0,39,0.00,,,0.00,HR-IXPWINDi_r2_v1.2.,2013-10-08 19:39:00,
2013-10-08 15:44:00,67.6,42.4,30.22,SW,217,4.0,10.0,40,0.00,,,0.00,HR-IXPWINDi_r2_v1.2.,2013-10-08 19:44:00,
2013-10-08 15:49:00,67.4,42.8,30.22,SW,218,5.0,10.0,41,0.00,,,0.00,HR-IXPWINDi_r2_v1.2.,2013-10-08 19:49:00,
2013-10-08 15:54:00,67.2,43.3,30.22,SW,221,3.0,8.0,42,0.00,,,0.00,HR-IXPWINDi_r2_v1.2.,2013-10-08 19:54:00,
2013-10-08 15:59:00,66.9,43.0,30.22,SSW,197,4.0,9.0,42,0.00,,,0.00,HR-IXPWINDi_r2_v1.2.,2013-10-08 19:59:00,
2013-10-08 16:05:00,66.7,42.8,30.23,SW,232,3.0,9.0,42,0.00,,,0.00,HR-IXPWINDi_r2_v1.2.,2013-10-08 20:05:00,
2013-10-08 16:10:00,66.6,43.4,30.23,SSW,198,4.0,8.0,43,0.00,,,0.00,HR-IXPWINDi_r2_v1.2.,2013-10-08 20:10:00,
2013-10-08 16:15:00,66.5,42.7,30.23,South,184,4.0,8.0,42,0.00,,,0.00,HR-IXPWINDi_r2_v1.2.,2013-10-08 20:15:00,
2013-10-08 16:20:00,66.4,42.6,30.23,SSE,160,5.0,6.0,42,0.00,,,0.00,HR-IXPWINDi_r2_v1.2.,2013-10-08 20:20:00,
2013-10-08 16:25:00,66.4,43.2,30.23,SW,229,6.0,7.0,43,0.00,,,0.00,HR-IXPWINDi_r2_v1.2.,2013-10-08 20:25:00,
2013-10-08 16:30:00,66.3,42.5,30.24,South,186,3.0,8.0,42,0.00,,,0.00,HR-IXPWINDi_r2_v1.2.,2013-10-08 20:30:00,
2013-10-08 16:35:00,66.2,43.6,30.24,South,188,3.0,8.0,44,0.00,,,0.00,HR-IXPWINDi_r2_v1.2.,2013-10-08 20:35:00,
2013-10-08 16:40:00,65.8,43.2,30.23,SW,229,5.0,7.0,44,0.00,,,0.00,HR-IXPWINDi_r2_v1.2.,2013-10-08 20:40:00,
2013-10-08 16:46:00,65.6,44.2,30.24,SW,217,3.0,7.0,46,0.00,,,0.00,HR-IXPWINDi_r2_v1.2.,2013-10-08 20:46:00,
2013-10-08 16:51:00,65.3,43.9,30.23,South,188,2.0,6.0,46,0.00,,,0.00,HR-IXPWINDi_r2_v1.2.,2013-10-08 20:51:00,
2013-10-08 16:56:00,65.0,44.2,30.24,South,175,2.0,6.0,47,0.00,,,0.00,HR-IXPWINDi_r2_v1.2.,2013-10-08 20:56:00,
2013-10-08 17:02:00,64.7,44.0,30.23,SSW,200,4.0,6.0,47,0.00,,,0.00,HR-IXPWINDi_r2_v1.2.,2013-10-08 21:02:00,
2013-10-08 17:07:00,64.5,44.3,30.24,SSW,204,3.0,6.0,48,0.00,,,0.00,HR-IXPWINDi_r2_v1.2.,2013-10-08 21:07:00,
2013-10-08 17:12:00,64.2,45.1,30.24,South,174,2.0,5.0,50,0.00,,,0.00,HR-IXPWINDi_r2_v1.2.,2013-10-08 21:12:00,
2013-10-08 17:17:00,63.9,44.3,30.25,SSW,200,3.0,6.0,49,0.00,,,0.00,HR-IXPWINDi_r2_v1.2.,2013-10-08 21:17:00,
2013-10-08 17:23:00,63.7,44.1,30.25,SSW,205,3.0,7.0,49,0.00,,,0.00,HR-IXPWINDi_r2_v1.2.,2013-10-08 21:23:00,
2013-10-08 17:28:00,63.4,44.4,30.25,SW,217,5.0,7.0,50,0.00,,,0.00,HR-IXPWINDi_r2_v1.2.,2013-10-08 21:28:00,
2013-10-08 17:33:00,63.1,44.1,30.25,SSW,200,6.0,6.0,50,0.00,,,0.00,HR-IXPWINDi_r2_v1.2.,2013-10-08 21:33:00,
2013-10-08 17:39:00,62.8,44.4,30.25,South,181,1.0,6.0,51,0.00,,,0.00,HR-IXPWINDi_r2_v1.2.,2013-10-08 21:39:00,
2013-10-08 17:44:00,62.4,44.0,30.25,South,180,0.0,6.0,51,0.00,,,0.00,HR-IXPWINDi_r2_v1.2.,2013-10-08 21:44:00,
2013-10-08 17:49:00,62.1,44.2,30.25,SSW,201,3.0,3.0,52,0.00,,,0.00,HR-IXPWINDi_r2_v1.2.,2013-10-08 21:49:00,
2013-10-08 17:54:00,61.7,43.9,30.25,South,190,3.0,4.0,52,0.00,,,0.00,HR-IXPWINDi_r2_v1.2.,2013-10-08 21:54:00,
2013-10-08 17:59:00,61.4,44.1,30.26,SSW,208,5.0,6.0,53,0.00,,,0.00,HR-IXPWINDi_r2_v1.2.,2013-10-08 21:59:00,
2013-10-08 18:04:00,61.3,44.0,30.26,South,188,2.0,6.0,53,0.00,,,0.00,HR-IXPWINDi_r2_v1.2.,2013-10-08 22:04:00,
2013-10-08 18:09:00,61.0,43.2,30.26,South,180,2.0,6.0,52,0.00,,,0.00,HR-IXPWINDi_r2_v1.2.,2013-10-08 22:09:00,
2013-10-08 18:15:00,60.7,42.9,30.26,SSW,203,3.0,6.0,52,0.00,,,0.00,HR-IXPWINDi_r2_v1.2.,2013-10-08 22:15:00,
2013-10-08 18:20:00,60.6,42.8,30.26,South,188,2.0,6.0,52,0.00,,,0.00,HR-IXPWINDi_r2_v1.2.,2013-10-08 22:20:00,
2013-10-08 18:25:00,60.3,43.1,30.26,SSW,200,1.0,6.0,53,0.00,,,0.00,HR-IXPWINDi_r2_v1.2.,2013-10-08 22:25:00,
2013-10-08 18:30:00,60.0,43.3,30.26,South,183,2.0,5.0,54,0.00,,,0.00,HR-IXPWINDi_r2_v1.2.,2013-10-08 22:30:00,
2013-10-08 18:35:00,59.7,43.0,30.27,SSW,201,1.0,3.0,54,0.00,,,0.00,HR-IXPWINDi_r2_v1.2.,2013-10-08 22:35:00,
2013-10-08 18:40:00,59.4,43.2,30.27,South,178,1.0,4.0,55,0.00,,,0.00,HR-IXPWINDi_r2_v1.2.,2013-10-08 22:40:00,
2013-10-08 18:45:00,59.2,43.0,30.27,SSW,210,3.0,4.0,55,0.00,,,0.00,HR-IXPWINDi_r2_v1.2.,2013-10-08 22:45:00,
2013-10-08 18:50:00,59.0,42.8,30.27,South,180,1.0,4.0,55,0.00,,,0.00,HR-IXPWINDi_r2_v1.2.,2013-10-08 22:50:00,
2013-10-08 18:56:00,58.8,42.6,30.27,South,184,1.0,4.0,55,0.00,,,0.00,HR-IXPWINDi_r2_v1.2.,2013-10-08 22:56:00,
2013-10-08 19:01:00,58.8,42.6,30.28,SSW,195,1.0,3.0,55,0.00,,,0.00,HR-IXPWINDi_r2_v1.2.,2013-10-08 23:01:00,
2013-10-08 19:06:00,58.6,42.4,30.28,South,190,1.0,3.0,55,0.00,,,0.00,HR-IXPWINDi_r2_v1.2.,2013-10-08 23:06:00,
2013-10-08 19:11:00,58.4,42.7,30.28,SSW,198,1.0,3.0,56,0.00,,,0.00,HR-IXPWINDi_r2_v1.2.,2013-10-08 23:11:00,
2013-10-08 19:16:00,58.2,42.5,30.28,South,188,1.0,3.0,56,0.00,,,0.00,HR-IXPWINDi_r2_v1.2.,2013-10-08 23:16:00,
2013-10-08 19:21:00,58.0,42.8,30.29,South,188,1.0,4.0,57,0.00,,,0.00,HR-IXPWINDi_r2_v1.2.,2013-10-08 23:21:00,
2013-10-08 19:27:00,57.7,43.0,30.29,South,190,1.0,4.0,58,0.00,,,0.00,HR-IXPWINDi_r2_v1.2.,2013-10-08 23:27:00,
2013-10-08 19:32:00,57.6,42.9,30.29,South,184,2.0,3.0,58,0.00,,,0.00,HR-IXPWINDi_r2_v1.2.,2013-10-08 23:32:00,
2013-10-08 19:37:00,57.6,43.3,30.29,South,177,2.0,5.0,59,0.00,,,0.00,HR-IXPWINDi_r2_v1.2.,2013-10-08 23:37:00,
2013-10-08 19:42:00,57.4,43.1,30.29,SSW,195,1.0,5.0,59,0.00,,,0.00,HR-IXPWINDi_r2_v1.2.,2013-10-08 23:42:00,
2013-10-08 19:47:00,57.1,43.3,30.30,SSW,203,3.0,3.0,60,0.00,,,0.00,HR-IXPWINDi_r2_v1.2.,2013-10-08 23:47:00,
2013-10-08 19:52:00,56.8,43.4,30.30,South,183,3.0,4.0,61,0.00,,,0.00,HR-IXPWINDi_r2_v1.2.,2013-10-08 23:52:00,
2013-10-08 19:58:00,56.6,43.7,30.30,SSW,197,2.0,4.0,62,0.00,,,0.00,HR-IXPWINDi_r2_v1.2.,2013-10-08 23:58:00,
2013-10-08 20:03:00,56.3,43.8,30.30,SSW,193,1.0,4.0,63,0.00,,,0.00,HR-IXPWINDi_r2_v1.2.,2013-10-09 00:03:00,
2013-10-08 20:08:00,56.2,43.7,30.30,SSW,210,3.0,4.0,63,0.00,,,0.00,HR-IXPWINDi_r2_v1.2.,2013-10-09 00:08:00,
2013-10-08 20:13:00,56.1,43.6,30.30,South,188,2.0,4.0,63,0.00,,,0.00,HR-IXPWINDi_r2_v1.2.,2013-10-09 00:13:00,
2013-10-08 20:18:00,56.1,44.0,30.31,South,191,2.0,5.0,64,0.00,,,0.00,HR-IXPWINDi_r2_v1.2.,2013-10-09 00:18:00,
2013-10-08 20:23:00,56.0,43.9,30.31,South,188,2.0,5.0,64,0.00,,,0.00,HR-IXPWINDi_r2_v1.2.,2013-10-09 00:23:00,
2013-10-08 20:29:00,55.8,43.8,30.31,South,190,2.0,4.0,64,0.00,,,0.00,HR-IXPWINDi_r2_v1.2.,2013-10-09 00:29:00,
2013-10-08 20:34:00,55.7,43.7,30.31,SSW,198,1.0,3.0,64,0.00,,,0.00,HR-IXPWINDi_r2_v1.2.,2013-10-09 00:34:00,
2013-10-08 20:39:00,55.6,44.0,30.31,South,184,2.0,3.0,65,0.00,,,0.00,HR-IXPWINDi_r2_v1.2.,2013-10-09 00:39:00,
2013-10-08 20:44:00,55.5,43.9,30.32,SSW,208,4.0,5.0,65,0.00,,,0.00,HR-IXPWINDi_r2_v1.2.,2013-10-09 00:44:00,
2013-10-08 20:49:00,55.5,43.9,30.32,SSW,200,2.0,5.0,65,0.00,,,0.00,HR-IXPWINDi_r2_v1.2.,2013-10-09 00:49:00,
2013-10-08 20:54:00,55.4,44.2,30.32,South,181,2.0,5.0,66,0.00,,,0.00,HR-IXPWINDi_r2_v1.2.,2013-10-09 00:54:00,
2013-10-08 20:59:00,55.4,44.2,30.32,SSW,195,2.0,5.0,66,0.00,,,0.00,HR-IXPWINDi_r2_v1.2.,2013-10-09 00:59:00,
2013-10-08 21:05:00,55.2,44.4,30.32,SW,215,3.0,5.0,67,0.00,,,0.00,HR-IXPWINDi_r2_v1.2.,2013-10-09 01:05:00,
2013-10-08 21:10:00,55.0,44.6,30.32,SSW,212,3.0,5.0,68,0.00,,,0.00,HR-IXPWINDi_r2_v1.2.,2013-10-09 01:10:00,
2013-10-08 21:15:00,54.8,45.2,30.33,SSW,203,5.0,5.0,70,0.00,,,0.00,HR-IXPWINDi_r2_v1.2.,2013-10-09 01:15:00,
2013-10-08 21:20:00,54.7,45.4,30.32,SSW,208,2.0,6.0,71,0.00,,,0.00,HR-IXPWINDi_r2_v1.2.,2013-10-09 01:20:00,
2013-10-08 21:26:00,54.6,45.3,30.33,SSW,212,4.0,6.0,71,0.00,,,0.00,HR-IXPWINDi_r2_v1.2.,2013-10-09 01:26:00,
2013-10-08 21:31:00,54.5,45.2,30.33,South,184,2.0,7.0,71,0.00,,,0.00,HR-IXPWINDi_r2_v1.2.,2013-10-09 01:31:00,
2013-10-08 21:36:00,54.4,45.1,30.33,SSW,195,2.0,7.0,71,0.00,,,0.00,HR-IXPWINDi_r2_v1.2.,2013-10-09 01:36:00,
2013-10-08 21:41:00,54.3,45.0,30.33,SSW,204,3.0,6.0,71,0.00,,,0.00,HR-IXPWINDi_r2_v1.2.,2013-10-09 01:41:00,
2013-10-08 21:46:00,54.3,45.0,30.33,SW,221,4.0,6.0,71,0.00,,,0.00,HR-IXPWINDi_r2_v1.2.,2013-10-09 01:46:00,
2013-10-08 21:51:00,54.1,45.2,30.34,SSW,193,1.0,6.0,72,0.00,,,0.00,HR-IXPWINDi_r2_v1.2.,2013-10-09 01:51:00,
2013-10-08 21:56:00,53.9,45.4,30.34,SW,226,5.0,6.0,73,0.00,,,0.00,HR-IXPWINDi_r2_v1.2.,2013-10-09 01:56:00,
2013-10-08 22:01:00,53.8,45.3,30.34,SSW,195,3.0,6.0,73,0.00,,,0.00,HR-IXPWINDi_r2_v1.2.,2013-10-09 02:01:00,
2013-10-08 22:06:00,53.6,45.5,30.35,SSW,212,3.0,6.0,74,0.00,,,0.00,HR-IXPWINDi_r2_v1.2.,2013-10-09 02:06:00,
2013-10-08 22:11:00,53.4,45.6,30.35,SSW,205,2.0,5.0,75,0.00,,,0.00,HR-IXPWINDi_r2_v1.2.,2013-10-09 02:11:00,
2013-10-08 22:17:00,53.3,45.5,30.35,South,188,4.0,4.0,75,0.00,,,0.00,HR-IXPWINDi_r2_v1.2.,2013-10-09 02:17:00,
2013-10-08 22:22:00,53.2,45.4,30.35,SSW,205,3.0,5.0,75,0.00,,,0.00,HR-IXPWINDi_r2_v1.2.,2013-10-09 02:22:00,
2013-10-08 22:27:00,53.1,45.7,30.35,South,191,3.0,5.0,76,0.00,,,0.00,HR-IXPWINDi_r2_v1.2.,2013-10-09 02:27:00,
2013-10-08 22:32:00,53.1,45.7,30.35,South,184,2.0,5.0,76,0.00,,,0.00,HR-IXPWINDi_r2_v1.2.,2013-10-09 02:32:00,
2013-10-08 22:38:00,53.1,45.7,30.35,SSW,195,3.0,5.0,76,0.00,,,0.00,HR-IXPWINDi_r2_v1.2.,2013-10-09 02:38:00,
2013-10-08 22:43:00,53.0,45.6,30.35,SSW,193,4.0,5.0,76,0.00,,,0.00,HR-IXPWINDi_r2_v1.2.,2013-10-09 02:43:00,
2013-10-08 22:48:00,53.0,45.6,30.35,SSW,194,3.0,5.0,76,0.00,,,0.00,HR-IXPWINDi_r2_v1.2.,2013-10-09 02:48:00,
2013-10-08 22:53:00,52.9,45.5,30.35,South,191,2.0,6.0,76,0.00,,,0.00,HR-IXPWINDi_r2_v1.2.,2013-10-09 02:53:00,
2013-10-08 22:58:00,52.8,45.4,30.35,South,188,3.0,6.0,76,0.00,,,0.00,HR-IXPWINDi_r2_v1.2.,2013-10-09 02:58:00,
2013-10-08 23:04:00,52.7,45.6,30.35,SSW,192,3.0,5.0,77,0.00,,,0.00,HR-IXPWINDi_r2_v1.2.,2013-10-09 03:04:00,
2013-10-08 23:09:00,52.6,45.9,30.35,South,184,3.0,5.0,78,0.00,,,0.00,HR-IXPWINDi_r2_v1.2.,2013-10-09 03:09:00,
2013-10-08 23:14:00,52.5,45.8,30.35,South,186,1.0,5.0,78,0.00,,,0.00,HR-IXPWINDi_r2_v1.2.,2013-10-09 03:14:00,
2013-10-08 23:19:00,52.2,45.5,30.35,South,181,0.0,4.0,78,0.00,,,0.00,HR-IXPWINDi_r2_v1.2.,2013-10-09 03:19:00,
2013-10-08 23:24:00,51.9,45.5,30.35,SSW,195,1.0,3.0,79,0.00,,,0.00,HR-IXPWINDi_r2_v1.2.,2013-10-09 03:24:00,
2013-10-08 23:29:00,51.7,45.7,30.36,South,177,1.0,3.0,80,0.00,,,0.00,HR-IXPWINDi_r2_v1.2.,2013-10-09 03:29:00,
2013-10-08 23:35:00,51.5,45.5,30.35,South,191,1.0,4.0,80,0.00,,,0.00,HR-IXPWINDi_r2_v1.2.,2013-10-09 03:35:00,
2013-10-08 23:40:00,51.3,45.6,30.36,South,183,2.0,4.0,81,0.00,,,0.00,HR-IXPWINDi_r2_v1.2.,2013-10-09 03:40:00,
2013-10-08 23:45:00,51.1,45.7,30.36,SSW,208,2.0,3.0,82,0.00,,,0.00,HR-IXPWINDi_r2_v1.2.,2013-10-09 03:45:00,
2013-10-08 23:50:00,50.8,45.4,30.36,South,191,5.0,5.0,82,0.00,,,0.00,HR-IXPWINDi_r2_v1.2.,2013-10-09 03:50:00,
2013-10-08 23:55:00,50.8,45.8,30.36,SW,227,3.0,5.0,83,0.00,,,0.00,HR-IXPWINDi_r2_v1.2.,2013-10-09 03:55:00,